Time;durP1;ratioP1;P1;durP2;ratioP2;P2;SDS_P1;SDS_P2;PMS_P1;PMS_P2;Temp;Humidity;BMP_temperature;BMP_pressure;BME280_temperature;BME280_humidity;BME280_pressure;Samples;Min_cycle;Max_cycle;Signal;HPM_P1;HPM_P2
2023/06/13 00:01:48;;;;;;;3.25;1.45;;;;;;;14.36;64.18;100363.59;1680788;85;22013;-63
2023/06/13 00:04:21;;;;;;;2.20;1.52;;;;;;;14.35;64.17;100359.98;1681011;85;21053;-63
2023/06/13 00:06:54;;;;;;;2.65;1.57;;;;;;;14.33;64.02;100355.23;1680636;85;21661;-62
2023/06/13 00:09:24;;;;;;;2.45;1.30;;;;;;;14.31;64.10;100350.48;1680805;85;21080;-63
2023/06/13 00:11:53;;;;;;;2.83;1.57;;;;;;;14.28;64.24;100345.37;1680871;85;21065;-63
2023/06/13 00:14:23;;;;;;;2.70;1.20;;;;;;;14.27;64.17;100344.53;1680726;85;21037;-62
2023/06/13 00:16:52;;;;;;;2.72;1.50;;;;;;;14.25;64.26;100349.97;1680949;85;21512;-61
2023/06/13 00:19:23;;;;;;;2.45;1.55;;;;;;;14.24;64.40;100353.78;1680903;85;21040;-62
2023/06/13 00:21:52;;;;;;;6.25;1.70;;;;;;;14.23;64.42;100351.56;1680593;85;21480;-62
2023/06/13 00:24:20;;;;;;;3.60;1.32;;;;;;;14.23;64.44;100346.05;1680994;85;21064;-62
2023/06/13 00:26:50;;;;;;;3.12;1.50;;;;;;;14.23;64.49;100352.94;1680793;85;21069;-63
2023/06/13 00:29:19;;;;;;;2.50;1.55;;;;;;;14.22;64.34;100351.78;1680754;85;21013;-62
2023/06/13 00:31:50;;;;;;;3.92;1.57;;;;;;;14.22;64.82;100348.50;1680756;85;21065;-63
2023/06/13 00:34:19;;;;;;;3.17;1.40;;;;;;;14.22;64.79;100341.61;1680358;85;21065;-63
2023/06/13 00:36:47;;;;;;;2.40;1.15;;;;;;;14.23;64.71;100335.03;1680697;85;21037;-63
2023/06/13 00:39:16;;;;;;;3.62;1.50;;;;;;;14.26;64.66;100330.98;1680779;85;21092;-63
2023/06/13 00:41:45;;;;;;;2.67;1.35;;;;;;;14.27;64.16;100325.78;1680038;85;21017;-62
2023/06/13 00:44:14;;;;;;;2.65;1.37;;;;;;;14.23;64.13;100322.63;1683581;85;21076;-62
2023/06/13 00:46:43;;;;;;;4.37;1.42;;;;;;;14.24;64.21;100324.31;1683115;85;21045;-63
2023/06/13 00:49:13;;;;;;;3.25;1.70;;;;;;;14.23;63.97;100324.53;1683222;85;21065;-62
2023/06/13 00:51:42;;;;;;;3.12;1.62;;;;;;;14.19;64.29;100327.43;1682409;85;21474;-63
2023/06/13 00:54:10;;;;;;;2.62;1.40;;;;;;;14.19;64.46;100328.27;1681110;85;21068;-61
2023/06/13 00:56:40;;;;;;;3.85;1.70;;;;;;;14.21;64.43;100323.38;1681288;85;21044;-62
2023/06/13 00:59:09;;;;;;;3.80;1.50;;;;;;;14.21;64.28;100321.16;1681143;85;21134;-62
2023/06/13 01:01:40;;;;;;;3.20;1.32;;;;;;;14.19;64.11;100319.16;1680218;85;21100;-62
2023/06/13 01:04:07;;;;;;;1.90;1.30;;;;;;;14.17;64.16;100323.52;1680435;85;21085;-64
2023/06/13 01:06:40;;;;;;;3.77;1.55;;;;;;;14.20;64.34;100324.98;1680880;85;21057;-63
2023/06/13 01:09:09;;;;;;;4.08;1.52;;;;;;;14.21;64.26;100322.54;1656966;85;21060;-62
2023/06/13 01:12:06;;;;;;;3.25;1.60;;;;;;;14.23;64.21;100316.27;1681005;85;21057;-62
2023/06/13 01:14:52;;;;;;;2.25;1.50;;;;;;;14.25;63.91;100321.87;1681031;85;21056;-62
2023/06/13 01:17:41;;;;;;;5.13;1.87;;;;;;;14.23;63.85;100318.49;1673259;85;21455;-62
2023/06/13 01:20:11;;;;;;;2.37;1.42;;;;;;;14.25;63.84;100320.48;1680946;85;21025;-62
2023/06/13 01:23:06;;;;;;;2.25;1.30;;;;;;;14.24;63.41;100320.18;1679865;85;21496;-63
2023/06/13 01:26:02;;;;;;;1.92;1.52;;;;;;;14.25;63.26;100329.30;1681009;85;21063;-63
2023/06/13 01:28:33;;;;;;;2.92;1.50;;;;;;;14.25;63.07;100323.25;1680820;85;21045;-62
2023/06/13 01:31:06;;;;;;;3.17;1.50;;;;;;;14.26;63.10;100319.42;1680901;85;21029;-62
2023/06/13 01:33:35;;;;;;;3.10;1.65;;;;;;;14.27;62.80;100321.64;1680509;85;21196;-62
2023/06/13 01:36:05;;;;;;;5.35;1.60;;;;;;;14.25;62.50;100316.89;1652754;85;21072;-63
2023/06/13 01:38:35;;;;;;;2.35;1.37;;;;;;;14.22;62.49;100315.42;1681064;85;21128;-61
2023/06/13 01:41:03;;;;;;;6.45;1.80;;;;;;;14.21;62.57;100313.73;1681030;85;21025;-62
2023/06/13 01:43:32;;;;;;;3.10;1.40;;;;;;;14.20;62.36;100319.47;1681010;85;21020;-61
2023/06/13 01:46:06;;;;;;;3.83;1.70;;;;;;;14.20;62.13;100311.20;1680968;85;21481;-61
2023/06/13 01:48:55;;;;;;;5.25;1.42;;;;;;;14.20;62.20;100315.34;1681020;85;21096;-62
2023/06/13 01:51:53;;;;;;;3.77;1.70;;;;;;;14.19;61.99;100314.50;1679490;85;21130;-62
2023/06/13 01:54:22;;;;;;;;;;;;;;;14.18;62.26;100314.72;1683195;85;21485;-62
2023/06/13 01:56:56;;;;;;;5.00;1.62;;;;;;;14.17;62.41;100316.63;1680724;85;20155;-61
2023/06/13 01:59:26;;;;;;;5.28;2.17;;;;;;;14.15;62.31;100310.50;1679455;85;21444;-61
2023/06/13 02:01:55;;;;;;;4.05;1.62;;;;;;;14.17;62.43;100319.38;1680780;85;21052;-61
2023/06/13 02:04:23;;;;;;;2.98;1.40;;;;;;;14.19;62.46;100315.88;1680490;85;21052;-60
2023/06/13 02:06:52;;;;;;;3.17;1.87;;;;;;;14.19;62.44;100320.00;1680733;85;21574;-61
2023/06/13 02:09:22;;;;;;;3.77;1.50;;;;;;;14.17;62.11;100319.92;1680883;85;21037;-60
2023/06/13 02:11:50;;;;;;;2.62;1.35;;;;;;;14.15;62.08;100320.14;1680065;85;21088;-62
2023/06/13 02:14:19;;;;;;;2.15;1.42;;;;;;;14.14;62.04;100321.74;1680987;85;21076;-61
2023/06/13 02:16:48;;;;;;;3.30;1.50;;;;;;;14.09;62.47;100316.91;1680624;85;21481;-62
2023/06/13 02:19:18;;;;;;;4.97;1.32;;;;;;;14.07;62.42;100316.28;1680733;85;21092;-62
2023/06/13 02:21:47;;;;;;;3.22;1.20;;;;;;;14.07;62.34;100321.80;1661294;85;21024;-61
2023/06/13 02:24:18;;;;;;;3.25;1.75;;;;;;;14.05;62.23;100323.92;1680998;85;21049;-61
2023/06/13 02:26:48;;;;;;;5.80;1.37;;;;;;;14.06;62.19;100322.02;1680728;85;21060;-62
2023/06/13 02:29:18;;;;;;;4.58;1.50;;;;;;;14.06;62.06;100328.91;1680803;85;21021;-62
2023/06/13 02:31:47;;;;;;;3.45;1.62;;;;;;;14.05;62.26;100333.56;1681302;85;21070;-60
2023/06/13 02:34:16;;;;;;;3.10;1.45;;;;;;;14.05;62.42;100332.19;1662282;85;21198;-60
2023/06/13 02:36:45;;;;;;;2.30;1.37;;;;;;;14.06;62.40;100332.50;1661958;85;21085;-61
2023/06/13 02:39:13;;;;;;;5.03;1.72;;;;;;;14.07;62.30;100334.72;1662065;86;21100;-61
2023/06/13 02:41:42;;;;;;;4.03;1.65;;;;;;;14.07;62.14;100335.56;1662320;85;21066;-61
2023/06/13 02:44:11;;;;;;;3.25;1.67;;;;;;;14.05;62.08;100331.34;1661881;85;21053;-62
2023/06/13 02:46:41;;;;;;;4.47;1.55;;;;;;;14.06;62.24;100329.75;1661728;86;21046;-61
2023/06/13 02:49:09;;;;;;;3.47;1.47;;;;;;;14.08;62.29;100327.61;1662016;85;21184;-60
2023/06/13 02:51:38;;;;;;;3.65;1.45;;;;;;;14.10;62.33;100326.02;1661845;86;21046;-62
2023/06/13 02:54:07;;;;;;;3.50;1.60;;;;;;;14.12;61.99;100326.63;1661904;86;21077;-61
2023/06/13 02:56:36;;;;;;;10.30;1.90;;;;;;;14.12;61.99;100331.61;1662259;85;21041;-62
2023/06/13 02:59:05;;;;;;;2.77;1.55;;;;;;;14.14;61.94;100326.72;1662006;85;21093;-62
2023/06/13 03:01:35;;;;;;;2.10;1.50;;;;;;;14.17;61.82;100329.03;1661953;85;21078;-61
2023/06/13 03:04:06;;;;;;;3.12;1.65;;;;;;;14.16;61.81;100327.34;1661982;86;21506;-61
2023/06/13 03:06:36;;;;;;;2.22;1.40;;;;;;;14.16;61.89;100319.61;1662153;85;21498;-60
2023/06/13 03:09:05;;;;;;;6.87;1.50;;;;;;;14.16;61.74;100322.36;1662351;85;21502;-60
2023/06/13 03:11:38;;;;;;;4.67;1.47;;;;;;;14.15;61.80;100327.56;1662815;85;21073;-61
2023/06/13 03:14:07;;;;;;;2.70;1.57;;;;;;;14.15;61.78;100327.03;1661931;86;21116;-60
2023/06/13 03:16:38;;;;;;;3.90;1.27;;;;;;;14.13;61.79;100329.16;1661939;85;21077;-61
2023/06/13 03:19:07;;;;;;;3.12;1.50;;;;;;;14.14;61.80;100326.72;1661886;86;21081;-60
2023/06/13 03:21:36;;;;;;;3.72;1.47;;;;;;;14.15;61.85;100322.05;1661881;86;21121;-62
2023/06/13 03:24:06;;;;;;;2.12;1.55;;;;;;;14.15;61.78;100325.66;1662158;85;21045;-61
2023/06/13 03:26:37;;;;;;;3.12;1.40;;;;;;;14.15;61.80;100320.68;1662605;85;21081;-62
2023/06/13 03:29:07;;;;;;;2.35;1.30;;;;;;;14.18;61.60;100327.12;1661902;86;21102;-61
2023/06/13 03:31:36;;;;;;;6.47;1.70;;;;;;;14.18;61.67;100327.97;1662042;86;21077;-62
2023/06/13 03:34:06;;;;;;;2.50;1.55;;;;;;;14.21;61.63;100326.14;1676514;85;21562;-63
2023/06/13 03:36:37;;;;;;;3.98;1.62;;;;;;;14.24;61.88;100325.70;1681027;85;21045;-61
2023/06/13 03:39:05;;;;;;;4.55;1.60;;;;;;;14.28;61.88;100321.42;1680819;85;21124;-62
2023/06/13 03:41:36;;;;;;;4.28;1.65;;;;;;;14.33;61.90;100322.16;1679086;85;21096;-61
2023/06/13 03:44:05;;;;;;;3.50;1.67;;;;;;;14.39;61.92;100326.77;1681088;85;21005;-61
2023/06/13 03:46:36;;;;;;;2.87;1.80;;;;;;;14.41;61.51;100327.39;1681014;85;21056;-61
2023/06/13 03:49:04;;;;;;;6.72;1.90;;;;;;;14.43;61.32;100325.83;1681032;85;21128;-62
2023/06/13 03:51:33;;;;;;;6.22;1.90;;;;;;;14.42;61.13;100328.23;1680855;85;21080;-63
2023/06/13 03:54:03;;;;;;;3.37;1.90;;;;;;;14.43;61.34;100323.06;1681058;85;21069;-62
2023/06/13 03:56:32;;;;;;;2.87;1.70;;;;;;;14.44;61.35;100334.41;1680820;85;21465;-61
2023/06/13 03:59:01;;;;;;;3.50;1.60;;;;;;;14.45;61.59;100337.47;1682605;85;21065;-61
2023/06/13 04:01:29;;;;;;;5.50;1.45;;;;;;;14.42;61.67;100332.37;1683962;85;21073;-62
2023/06/13 04:03:58;;;;;;;5.33;1.57;;;;;;;14.43;61.63;100334.09;1683876;85;21060;-61
2023/06/13 04:06:28;;;;;;;4.15;1.90;;;;;;;14.42;61.85;100333.25;1683161;85;21104;-61
2023/06/13 04:08:57;;;;;;;2.98;1.60;;;;;;;14.40;62.09;100330.38;1682087;85;21108;-61
2023/06/13 04:11:25;;;;;;;5.72;1.67;;;;;;;14.40;61.44;100327.09;1681172;85;21092;-62
2023/06/13 04:13:55;;;;;;;4.25;1.80;;;;;;;14.40;61.58;100324.33;1680973;85;21012;-65
2023/06/13 04:16:23;;;;;;;5.75;1.65;;;;;;;14.42;61.73;100323.60;1680738;85;21090;-63
2023/06/13 04:18:54;;;;;;;2.87;1.77;;;;;;;14.45;61.50;100326.44;1680955;85;21052;-63
2023/06/13 04:21:27;;;;;;;4.47;1.95;;;;;;;14.47;61.62;100328.44;1680729;85;21029;-63
2023/06/13 04:23:55;;;;;;;5.22;1.82;;;;;;;14.51;61.80;100333.28;1680827;85;21041;-62
2023/06/13 04:26:25;;;;;;;5.12;1.90;;;;;;;14.57;61.78;100328.77;1680885;85;21084;-61
2023/06/13 04:28:55;;;;;;;3.60;1.80;;;;;;;14.58;61.47;100327.17;1680890;85;21477;-63
2023/06/13 04:31:25;;;;;;;3.85;2.08;;;;;;;14.65;61.36;100338.67;1680853;85;21523;-63
2023/06/13 04:33:55;;;;;;;6.60;2.05;;;;;;;14.71;61.24;100342.75;1680964;85;21119;-62
2023/06/13 04:36:28;;;;;;;5.00;2.00;;;;;;;14.79;61.03;100340.23;1680924;85;21076;-61
2023/06/13 04:38:55;;;;;;;6.62;1.82;;;;;;;14.82;60.63;100336.48;1680798;85;21017;-63
2023/06/13 04:41:24;;;;;;;6.67;1.95;;;;;;;14.86;60.49;100336.34;1680873;85;21052;-61
2023/06/13 04:43:53;;;;;;;2.75;1.92;;;;;;;14.94;60.61;100331.61;1680899;85;21057;-61
2023/06/13 04:46:22;;;;;;;5.40;1.98;;;;;;;14.99;60.29;100327.12;1681056;85;21052;-63
2023/06/13 04:48:52;;;;;;;3.95;2.00;;;;;;;15.02;60.01;100322.52;1680833;85;21052;-62
2023/06/13 04:51:21;;;;;;;3.87;1.92;;;;;;;15.07;59.93;100328.20;1680946;85;21049;-62
2023/06/13 04:53:50;;;;;;;6.65;2.30;;;;;;;15.13;59.72;100326.44;1680869;85;21005;-63
2023/06/13 04:56:19;;;;;;;3.20;2.20;;;;;;;15.19;59.80;100331.04;1680919;85;21054;-62
2023/06/13 04:58:48;;;;;;;2.40;2.10;;;;;;;15.23;59.26;100324.83;1681019;85;21514;-61
2023/06/13 05:01:18;;;;;;;5.05;2.00;;;;;;;15.28;58.97;100332.42;1681070;85;21084;-63
2023/06/13 05:03:51;;;;;;;4.05;2.30;;;;;;;15.33;58.90;100335.87;1680847;85;21109;-62
2023/06/13 05:06:18;;;;;;;5.15;2.42;;;;;;;15.33;58.71;100332.57;1681002;85;21445;-64
2023/06/13 05:08:46;;;;;;;5.17;2.25;;;;;;;15.40;58.37;100328.35;1680999;85;21083;-62
2023/06/13 05:11:15;;;;;;;7.95;2.27;;;;;;;15.46;58.27;100332.41;1680967;85;21036;-63
2023/06/13 05:13:43;;;;;;;3.67;2.20;;;;;;;15.50;57.83;100323.97;1680886;85;21025;-62
2023/06/13 05:16:13;;;;;;;6.08;2.50;;;;;;;15.51;57.75;100319.29;1680806;85;21511;-62
2023/06/13 05:18:44;;;;;;;3.25;2.27;;;;;;;15.53;57.62;100314.38;1681116;85;21060;-63
2023/06/13 05:21:16;;;;;;;6.15;2.62;;;;;;;15.54;57.67;100315.53;1681002;85;21076;-62
2023/06/13 05:23:44;;;;;;;5.22;2.37;;;;;;;15.59;57.95;100312.64;1680890;85;21040;-61
2023/06/13 05:26:12;;;;;;;6.35;2.33;;;;;;;15.66;57.62;100311.50;1680874;85;21060;-62
2023/06/13 05:28:43;;;;;;;4.58;2.83;;;;;;;15.72;57.40;100309.73;1680808;85;21061;-64
2023/06/13 05:31:13;;;;;;;3.67;2.40;;;;;;;15.75;57.37;100313.41;1679003;85;21084;-61
2023/06/13 05:33:42;;;;;;;3.17;2.30;;;;;;;15.83;57.21;100311.16;1670477;85;21124;-62
2023/06/13 05:36:11;;;;;;;4.25;2.33;;;;;;;15.92;57.26;100305.30;1627100;87;21089;-62
2023/06/13 05:38:40;;;;;;;3.33;2.27;;;;;;;16.00;57.18;100314.64;1645356;86;21057;-62
2023/06/13 05:41:09;;;;;;;6.35;2.30;;;;;;;16.06;56.92;100313.69;1645303;87;21120;-62
2023/06/13 05:43:37;;;;;;;3.75;2.50;;;;;;;16.14;56.94;100312.81;1645659;86;21484;-62
2023/06/13 05:46:06;;;;;;;4.87;2.60;;;;;;;16.22;56.89;100306.64;1645805;86;21088;-62
2023/06/13 05:48:35;;;;;;;8.05;2.65;;;;;;;16.30;57.06;100311.32;1645550;86;21013;-63
2023/06/13 05:51:05;;;;;;;4.80;2.40;;;;;;;16.36;56.62;100305.37;1613485;88;21069;-62
2023/06/13 05:53:34;;;;;;;9.93;3.00;;;;;;;16.39;56.49;100309.05;1613245;89;21082;-62
2023/06/13 05:56:06;;;;;;;6.95;4.00;;;;;;;16.44;56.54;100300.88;1644977;87;21133;-61
2023/06/13 05:58:34;;;;;;;5.50;2.98;;;;;;;16.52;56.52;100307.45;1645710;86;21059;-62
2023/06/13 06:01:03;;;;;;;11.48;4.78;;;;;;;16.61;56.25;100310.16;1645578;87;21101;-62
2023/06/13 06:03:33;;;;;;;8.93;3.67;;;;;;;16.65;55.85;100311.91;1645448;87;21107;-62
2023/06/13 06:06:02;;;;;;;8.35;3.37;;;;;;;16.72;55.84;100312.13;1645320;87;21090;-61
2023/06/13 06:08:32;;;;;;;6.85;3.92;;;;;;;16.79;55.78;100314.22;1645280;87;21199;-62
2023/06/13 06:11:01;;;;;;;7.87;3.37;;;;;;;16.84;55.42;100307.97;1645169;87;21049;-62
2023/06/13 06:13:30;;;;;;;4.15;3.15;;;;;;;16.88;55.52;100311.09;1645394;87;21100;-63
2023/06/13 06:16:00;;;;;;;5.75;3.33;;;;;;;16.95;55.45;100320.15;1645452;87;21037;-62
2023/06/13 06:18:30;;;;;;;7.33;3.10;;;;;;;17.00;55.56;100312.80;1645456;86;21049;-61
2023/06/13 06:21:02;;;;;;;5.87;3.33;;;;;;;17.06;55.37;100323.45;1645530;87;21060;-62
2023/06/13 06:23:30;;;;;;;7.92;3.55;;;;;;;17.03;55.06;100318.40;1641893;87;21045;-62
2023/06/13 06:25:58;;;;;;;4.53;3.20;;;;;;;16.99;55.06;100315.81;1645505;86;21081;-61
2023/06/13 06:28:28;;;;;;;6.72;3.52;;;;;;;16.93;55.17;100314.85;1645374;87;21079;-63
2023/06/13 06:30:58;;;;;;;5.97;3.67;;;;;;;16.95;55.43;100318.77;1645433;86;21179;-62
2023/06/13 06:33:26;;;;;;;9.40;3.50;;;;;;;17.01;55.24;100313.64;1646685;85;21061;-62
2023/06/13 06:35:54;;;;;;;6.00;3.52;;;;;;;17.11;55.07;100308.34;1678824;85;21041;-60
2023/06/13 06:38:24;;;;;;;4.90;3.67;;;;;;;17.20;54.79;100302.72;1678757;85;21048;-62
2023/06/13 06:40:52;;;;;;;5.30;3.25;;;;;;;17.29;54.53;100313.72;1678636;85;21225;-63
2023/06/13 06:43:21;;;;;;;4.65;3.33;;;;;;;17.35;54.66;100307.20;1678616;85;21061;-61
2023/06/13 06:45:49;;;;;;;8.23;3.67;;;;;;;17.41;54.64;100300.69;1678645;85;21027;-63
2023/06/13 06:48:18;;;;;;;8.98;3.58;;;;;;;17.44;54.99;100308.50;1678579;85;21484;-63
2023/06/13 06:50:48;;;;;;;6.45;3.58;;;;;;;17.52;54.79;100300.89;1678651;85;21521;-61
2023/06/13 06:53:18;;;;;;;6.10;3.72;;;;;;;17.58;54.35;100296.62;1678651;85;21088;-63
2023/06/13 06:55:47;;;;;;;7.03;3.70;;;;;;;17.59;53.33;100291.39;1678727;85;21096;-62
2023/06/13 06:58:17;;;;;;;5.22;3.47;;;;;;;17.59;53.37;100303.85;1678657;85;21045;-62
2023/06/13 07:00:47;;;;;;;6.72;3.45;;;;;;;17.62;53.33;100301.98;1678649;85;21072;-68
2023/06/13 07:03:15;;;;;;;7.85;3.55;;;;;;;17.76;53.83;100294.24;1678964;85;21037;-62
2023/06/13 07:05:44;;;;;;;6.17;3.62;;;;;;;18.00;52.67;100286.66;1678635;85;21080;-63
2023/06/13 07:08:13;;;;;;;8.85;3.58;;;;;;;18.17;52.38;100286.67;1678650;85;21041;-63
2023/06/13 07:10:42;;;;;;;6.80;4.22;;;;;;;18.29;52.14;100283.31;1597056;90;21520;-63
2023/06/13 07:13:11;;;;;;;4.70;3.70;;;;;;;18.44;51.72;100275.80;1597124;90;21072;-63
2023/06/13 07:15:40;;;;;;;10.13;4.22;;;;;;;18.48;51.50;100276.97;1597500;90;21159;-64
2023/06/13 07:18:11;;;;;;;5.90;4.05;;;;;;;18.47;51.29;100271.97;1597811;90;21102;-62
2023/06/13 07:20:48;;;;;;;10.78;4.25;;;;;;;18.42;51.52;100276.05;1598533;89;21085;-63
2023/06/13 07:23:14;;;;;;;9.18;4.67;;;;;;;18.37;51.74;100284.28;1599601;90;21089;-64
2023/06/13 07:25:43;;;;;;;6.28;4.22;;;;;;;18.31;51.26;100285.29;1599752;89;21064;-64
2023/06/13 07:28:12;;;;;;;8.85;4.83;;;;;;;18.29;51.25;100286.92;1611310;87;21071;-61
2023/06/13 07:30:41;;;;;;;6.40;4.80;;;;;;;18.28;51.38;100287.18;1646178;86;21053;-64
2023/06/13 07:33:09;;;;;;;9.60;4.85;;;;;;;18.29;51.25;100279.16;1678738;85;21077;-62
2023/06/13 07:35:39;;;;;;;6.05;4.37;;;;;;;18.32;51.43;100288.36;1650207;85;21112;-61
2023/06/13 07:38:08;;;;;;;11.00;4.37;;;;;;;18.41;51.07;100286.01;1645374;87;21104;-62
2023/06/13 07:40:37;;;;;;;6.35;4.42;;;;;;;18.45;51.04;100288.58;1645435;86;21117;-63
2023/06/13 07:43:06;;;;;;;6.75;4.00;;;;;;;18.45;50.62;100277.47;1613390;89;21329;-61
2023/06/13 07:45:36;;;;;;;8.40;3.85;;;;;;;18.42;50.68;100285.75;1613479;88;21061;-64
2023/06/13 07:48:05;;;;;;;5.53;4.03;;;;;;;18.37;50.89;100283.73;1613304;89;21343;-63
2023/06/13 07:50:34;;;;;;;7.67;3.87;;;;;;;18.41;50.58;100275.75;1597645;89;21095;-64
2023/06/13 07:53:02;;;;;;;103.22;8.73;;;;;;;18.56;50.47;100285.71;1613407;88;21127;-63
2023/06/13 07:55:32;;;;;;;8.95;4.33;;;;;;;18.66;50.11;100281.73;1591268;88;21517;-62
2023/06/13 07:58:02;;;;;;;6.50;4.00;;;;;;;18.75;49.72;100282.70;1596109;88;21075;-64
2023/06/13 08:00:31;;;;;;;6.65;3.80;;;;;;;18.81;49.46;100287.23;1601916;89;21574;-62
2023/06/13 08:03:00;;;;;;;8.18;3.90;;;;;;;18.84;49.04;100283.95;1578242;90;21092;-63
2023/06/13 08:05:29;;;;;;;8.15;3.83;;;;;;;18.83;48.84;100287.81;1626663;88;21056;-67
2023/06/13 08:07:58;;;;;;;9.55;4.33;;;;;;;18.80;48.97;100285.55;1635607;87;21119;-64
2023/06/13 08:10:27;;;;;;;6.87;3.65;;;;;;;18.88;49.32;100290.70;1625861;88;21087;-63
2023/06/13 08:12:59;;;;;;;8.05;3.35;;;;;;;18.99;48.52;100280.03;1600618;89;21160;-65
2023/06/13 08:15:28;;;;;;;5.97;3.42;;;;;;;19.08;48.60;100277.10;1626084;87;21055;-65
2023/06/13 08:18:00;;;;;;;11.70;3.83;;;;;;;19.26;48.42;100271.23;1599268;88;21088;-65
2023/06/13 08:20:30;;;;;;;7.75;4.12;;;;;;;19.53;48.18;100269.97;1597929;88;21116;-63
2023/06/13 08:22:59;;;;;;;6.60;3.58;;;;;;;19.84;46.69;100273.08;1598727;89;21044;-64
2023/06/13 08:25:29;;;;;;;10.13;3.72;;;;;;;19.95;46.91;100270.15;1626214;88;21059;-66
2023/06/13 08:27:58;;;;;;;4.33;3.47;;;;;;;20.07;46.06;100264.97;1626173;88;21060;-65
2023/06/13 08:30:27;;;;;;;8.60;4.03;;;;;;;20.13;46.31;100270.31;1597291;88;21066;-64
2023/06/13 08:32:56;;;;;;;6.42;3.65;;;;;;;20.25;46.29;100275.75;1597692;89;21538;-64
2023/06/13 08:35:24;;;;;;;4.70;3.35;;;;;;;20.37;45.76;100273.63;1588551;90;21195;-63
2023/06/13 08:37:53;;;;;;;6.85;3.50;;;;;;;20.47;45.17;100264.55;1627338;87;21516;-65
2023/06/13 08:40:22;;;;;;;5.00;2.98;;;;;;;20.47;45.41;100271.51;1639427;87;21072;-62
2023/06/13 08:42:51;;;;;;;4.60;2.95;;;;;;;20.48;45.35;100278.20;1629498;88;21075;-65
2023/06/13 08:45:19;;;;;;;5.67;2.75;;;;;;;20.45;45.55;100273.16;1628796;88;21083;-62
2023/06/13 08:47:50;;;;;;;6.15;3.27;;;;;;;20.40;45.06;100275.91;1595581;90;21122;-62
2023/06/13 08:50:24;;;;;;;6.97;2.52;;;;;;;20.34;45.59;100287.23;1631857;86;21067;-62
2023/06/13 08:52:57;;;;;;;4.90;2.50;;;;;;;20.33;45.15;100278.59;1658593;86;21055;-64
2023/06/13 08:55:26;;;;;;;4.92;2.90;;;;;;;20.17;45.23;100277.06;1627749;88;21569;-63
2023/06/13 08:58:01;;;;;;;3.62;2.65;;;;;;;20.01;45.32;100284.95;1631095;88;21151;-62
2023/06/13 09:00:33;;;;;;;4.97;2.30;;;;;;;19.81;45.64;100286.96;1607114;87;21068;-62
2023/06/13 09:03:03;;;;;;;6.03;2.52;;;;;;;19.75;46.25;100288.55;1619643;87;21048;-62
2023/06/13 09:05:32;;;;;;;5.85;2.90;;;;;;;19.70;45.92;100274.05;1628479;88;21047;-63
2023/06/13 09:08:01;;;;;;;3.35;2.60;;;;;;;19.58;46.51;100276.14;1629438;87;21459;-64
2023/06/13 09:10:32;;;;;;;9.15;4.15;;;;;;;19.56;46.71;100283.89;1630100;87;21055;-62
2023/06/13 09:13:01;;;;;;;6.00;2.80;;;;;;;19.55;47.19;100283.05;1602163;88;21127;-61
2023/06/13 09:15:30;;;;;;;4.22;2.80;;;;;;;19.58;46.96;100278.91;1614303;87;21035;-60
2023/06/13 09:17:59;;;;;;;6.90;3.05;;;;;;;19.55;46.68;100283.60;1626525;88;21080;-61
2023/06/13 09:20:30;;;;;;;4.12;2.90;;;;;;;19.44;46.92;100278.41;1630027;87;21067;-63
2023/06/13 09:23:00;;;;;;;8.00;2.87;;;;;;;19.38;47.29;100279.99;1618480;87;21108;-63
2023/06/13 09:25:31;;;;;;;6.62;3.10;;;;;;;19.36;47.33;100278.86;1641664;87;21074;-64
2023/06/13 09:28:32;;;;;;;6.67;3.10;;;;;;;19.34;47.12;100269.94;1641473;87;21503;-64
2023/06/13 09:31:01;;;;;;;4.05;2.40;;;;;;;19.27;47.50;100274.30;1641496;87;21111;-63
2023/06/13 09:33:31;;;;;;;6.25;2.70;;;;;;;19.26;47.85;100277.34;1623470;87;21076;-64
2023/06/13 09:35:59;;;;;;;10.25;2.62;;;;;;;19.25;47.77;100277.89;1640085;86;21503;-61
2023/06/13 09:38:35;;;;;;;5.72;2.70;;;;;;;19.22;47.85;100282.58;1639857;87;21083;-62
2023/06/13 09:41:04;;;;;;;5.40;2.92;;;;;;;19.20;48.18;100286.70;1657034;86;21110;-65
2023/06/13 09:43:34;;;;;;;7.72;3.00;;;;;;;19.24;48.18;100287.33;1658626;86;21063;-64
2023/06/13 09:46:03;;;;;;;5.12;2.62;;;;;;;19.30;48.02;100288.23;1597466;88;21096;-62
2023/06/13 09:48:33;;;;;;;6.28;3.27;;;;;;;19.33;47.95;100283.55;1639513;87;21056;-62
2023/06/13 09:51:07;;;;;;;5.97;3.83;;;;;;;19.35;47.89;100283.28;1629147;88;21483;-63
2023/06/13 09:53:37;;;;;;;5.37;3.47;;;;;;;19.33;47.88;100277.44;1639535;86;21103;-62
2023/06/13 09:56:09;;;;;;;7.50;3.58;;;;;;;19.32;47.99;100270.75;1658473;86;21054;-62
2023/06/13 09:58:38;;;;;;;6.65;3.08;;;;;;;19.34;47.86;100282.45;1658443;86;21055;-64
2023/06/13 10:01:14;;;;;;;6.10;3.37;;;;;;;19.35;48.09;100286.06;1658554;86;21023;-62
2023/06/13 10:03:39;;;;;;;4.45;2.75;;;;;;;19.32;48.16;100284.09;1656065;86;21057;-62
2023/06/13 10:06:10;;;;;;;3.83;2.80;;;;;;;19.35;48.36;100281.34;1656943;86;21035;-62
2023/06/13 10:08:40;;;;;;;4.40;2.77;;;;;;;19.41;48.13;100279.47;1657407;85;21063;-61
2023/06/13 10:11:18;;;;;;;3.72;2.90;;;;;;;19.43;48.21;100279.50;1654432;85;21039;-62
2023/06/13 10:14:15;;;;;;;5.35;3.17;;;;;;;19.51;48.35;100290.75;1654143;87;21095;-63
2023/06/13 10:16:51;;;;;;;4.95;3.25;;;;;;;19.56;48.31;100288.91;1624268;88;21529;-62
2023/06/13 10:19:23;;;;;;;6.40;2.90;;;;;;;19.53;47.89;100285.80;1622706;86;21553;-63
2023/06/13 10:21:51;;;;;;;4.20;2.90;;;;;;;19.49;48.12;100283.19;1615188;88;21068;-63
2023/06/13 10:24:20;;;;;;;4.08;3.08;;;;;;;19.42;48.16;100285.33;1615231;89;21085;-61
2023/06/13 10:26:55;;;;;;;7.20;3.52;;;;;;;19.33;48.34;100285.77;1615004;88;21100;-62
2023/06/13 10:29:43;;;;;;;5.78;3.15;;;;;;;19.31;48.59;100276.02;1615468;88;21115;-64
2023/06/13 10:32:38;;;;;;;;;;;;;;;19.25;48.49;100277.89;1569419;89;21393;-61
2023/06/13 10:35:33;;;;;;;6.97;2.92;;;;;;;19.21;48.53;100277.28;1532346;91;20567;-65
2023/06/13 10:38:14;;;;;;;3.95;3.30;;;;;;;19.20;48.97;100283.93;1515259;92;21128;-64
2023/06/13 10:40:47;;;;;;;4.87;3.45;;;;;;;19.21;48.43;100283.67;1576340;88;21085;-62
2023/06/13 10:43:49;;;;;;;6.95;3.30;;;;;;;19.09;48.89;100284.34;1597260;90;21075;-64
2023/06/13 10:46:35;;;;;;;6.12;3.42;;;;;;;19.04;49.01;100287.05;1619637;88;21563;-63
2023/06/13 10:49:17;;;;;;;5.25;3.30;;;;;;;19.03;49.07;100293.70;1612910;88;21523;-62
2023/06/13 10:51:47;;;;;;;6.95;3.12;;;;;;;19.06;48.65;100295.13;1610120;89;21120;-65
2023/06/13 10:54:16;;;;;;;3.98;2.95;;;;;;;19.07;48.72;100292.09;1610032;89;21068;-62
2023/06/13 10:56:45;;;;;;;5.00;2.98;;;;;;;19.06;48.53;100291.80;1610142;89;21123;-63
2023/06/13 10:59:17;;;;;;;4.40;2.90;;;;;;;19.03;48.50;100289.53;1612999;88;21072;-63
2023/06/13 11:01:53;;;;;;;4.50;2.95;;;;;;;18.99;48.71;100285.03;1611113;88;21068;-64
2023/06/13 11:04:24;;;;;;;7.53;3.00;;;;;;;19.01;48.97;100293.11;1587600;89;21123;-62
2023/06/13 11:07:24;;;;;;;5.03;3.20;;;;;;;19.05;48.66;100288.73;1568837;90;21076;-64
2023/06/13 11:10:12;;;;;;;4.10;3.20;;;;;;;18.99;48.58;100278.09;1584829;89;21072;-63
2023/06/13 11:12:50;;;;;;;8.08;3.55;;;;;;;18.98;48.98;100276.96;1587944;89;21060;-64
2023/06/13 11:15:25;;;;;;;5.67;3.40;;;;;;;19.04;48.89;100275.94;1564421;89;22075;-62
2023/06/13 11:18:15;;;;;;;6.92;3.47;;;;;;;19.07;48.72;100280.98;1603243;89;21071;-63
2023/06/13 11:20:59;;;;;;;6.72;3.58;;;;;;;19.03;48.83;100282.59;1587574;90;21048;-63
2023/06/13 11:23:46;;;;;;;8.73;3.47;;;;;;;18.97;48.99;100281.67;1587541;89;21087;-64
2023/06/13 11:26:21;;;;;;;9.65;3.85;;;;;;;18.95;49.19;100280.25;1587880;89;21104;-62
2023/06/13 11:28:52;;;;;;;;;;;;;;;18.95;49.25;100269.14;1589899;89;21144;-61
2023/06/13 11:31:22;;;;;;;6.85;3.37;;;;;;;18.99;49.29;100268.92;1603084;89;20185;-64
2023/06/13 11:33:52;;;;;;;4.92;3.45;;;;;;;19.00;49.44;100266.44;1587408;90;21068;-63
2023/06/13 11:36:21;;;;;;;6.95;3.90;;;;;;;19.04;49.29;100265.38;1625354;86;21574;-63
2023/06/13 11:39:03;;;;;;;10.88;6.10;;;;;;;19.08;49.13;100265.16;1589807;89;21056;-66
2023/06/13 11:41:32;;;;;;;7.85;4.60;;;;;;;19.07;48.86;100270.42;1639101;87;21080;-63
2023/06/13 11:44:01;;;;;;;6.70;4.75;;;;;;;18.98;48.86;100268.09;1640467;87;21124;-62
2023/06/13 11:46:30;;;;;;;9.45;4.47;;;;;;;18.89;49.34;100273.78;1601498;88;21056;-65